createdAt,value
2018-02-19T00:02:07.270Z,66.8
2018-02-19T00:12:22.114Z,67.0
2018-02-19T00:23:29.994Z,67.0
2018-02-19T00:33:45.898Z,67.6
2018-02-19T00:44:00.119Z,67.2
2018-02-19T00:54:12.110Z,67.6
2018-02-19T01:05:07.236Z,67.3
2018-02-19T01:16:11.286Z,67.9
2018-02-19T01:26:25.898Z,68.0
2018-02-19T01:37:22.394Z,68.2
2018-02-19T01:47:36.769Z,68.1
2018-02-19T01:57:52.128Z,68.1
2018-02-19T02:08:07.874Z,68.0
2018-02-19T02:18:21.948Z,68.4
2018-02-19T02:28:37.811Z,68.3
2018-02-19T02:39:23.887Z,68.4
2018-02-19T02:49:38.208Z,68.0
2018-02-19T02:59:53.664Z,68.3
2018-02-19T03:10:08.104Z,68.0
2018-02-19T03:20:23.348Z,68.5
2018-02-19T03:30:40.408Z,68.7
2018-02-19T03:42:00.001Z,68.9
2018-02-19T03:52:46.486Z,69.0
2018-02-19T04:03:14.181Z,69.0
2018-02-19T04:13:29.450Z,69.4
2018-02-19T04:24:15.391Z,69.2
2018-02-19T04:34:26.550Z,69.2
2018-02-19T04:44:40.690Z,68.8
2018-02-19T04:54:55.299Z,68.8
2018-02-19T05:05:07.388Z,69.2
2018-02-19T05:15:21.578Z,69.2
2018-02-19T05:25:35.561Z,69.3
2018-02-19T05:36:21.075Z,69.5
2018-02-19T05:47:06.245Z,69.4
2018-02-19T05:57:52.102Z,69.1
2018-02-19T06:08:03.705Z,69.5
2018-02-19T06:18:17.656Z,68.8
2018-02-19T06:28:32.697Z,69.5
2018-02-19T06:38:46.005Z,69.1
2018-02-19T06:49:30.889Z,69.6
2018-02-19T07:00:18.852Z,69.3
2018-02-19T07:11:04.348Z,69.3
2018-02-19T07:21:18.042Z,69.6
2018-02-19T07:31:30.431Z,69.7
2018-02-19T07:41:44.619Z,69.8
2018-02-19T07:52:30.115Z,70.2
2018-02-19T08:02:44.263Z,70.6
2018-02-19T08:13:29.021Z,70.9
2018-02-19T08:23:42.356Z,70.9
2018-02-19T08:33:56.476Z,70.7
2018-02-19T08:44:10.193Z,72.1
2018-02-19T08:54:24.526Z,74.2
2018-02-19T09:04:39.542Z,72.8
2018-02-19T09:14:53.562Z,70.3
2018-02-19T09:25:39.265Z,68.5
2018-02-19T09:35:53.612Z,68.0
2018-02-19T09:46:07.555Z,68.2
2018-02-19T09:56:52.588Z,68.2
2018-02-19T10:07:38.292Z,67.9
2018-02-19T10:18:23.934Z,67.7
2018-02-19T10:28:38.312Z,67.5
2018-02-19T10:38:52.033Z,67.5
2018-02-19T10:49:07.743Z,67.6
2018-02-19T10:59:21.272Z,67.9
2018-02-19T11:09:35.419Z,67.6
2018-02-19T11:19:49.753Z,67.3
2018-02-19T11:30:04.411Z,67.2
2018-02-19T11:40:18.037Z,67.2
2018-02-19T11:50:32.306Z,67.3
2018-02-19T12:01:18.027Z,67.4
2018-02-19T12:12:03.618Z,67.7
2018-02-19T12:22:15.438Z,68.4
2018-02-19T12:32:29.337Z,68.0
2018-02-19T12:42:43.289Z,66.8
2018-02-19T12:52:59.123Z,66.5
2018-02-19T13:03:11.170Z,65.9
2018-02-19T13:13:23.185Z,65.3
2018-02-19T13:23:37.748Z,65.0
2018-02-19T13:34:23.072Z,65.0
2018-02-19T13:44:36.423Z,65.4
2018-02-19T13:54:50.833Z,66.0
2018-02-19T14:38:41.930Z,67.2
2018-02-19T15:19:06.956Z,67.8
2018-02-19T15:29:18.752Z,67.8
2018-02-19T15:39:35.949Z,68.2
2018-02-19T15:49:50.513Z,68.0
2018-02-19T16:00:04.403Z,67.8
2018-02-19T16:10:16.425Z,68.1
2018-02-19T16:20:32.639Z,67.9
2018-02-19T16:30:45.981Z,68.5
2018-02-19T16:41:31.518Z,68.8
2018-02-19T16:51:43.245Z,68.7
2018-02-19T17:01:55.517Z,69.2
2018-02-19T17:12:09.513Z,69.0
2018-02-19T17:22:20.831Z,68.8
2018-02-19T17:32:35.148Z,68.6
2018-02-19T17:42:46.437Z,68.3
2018-02-19T17:53:01.037Z,68.3
2018-02-19T18:03:46.310Z,68.2
2018-02-19T18:14:30.881Z,68.2
2018-02-19T18:28:02.345Z,68.0
2018-02-19T18:39:35.215Z,67.7
2018-02-19T18:49:51.275Z,67.8
2018-02-19T19:19:00.842Z,68.4
2018-02-19T19:30:08.559Z,68.4
2018-02-19T19:42:20.585Z,68.4
2018-02-19T19:53:15.854Z,68.6
2018-02-19T20:03:31.819Z,68.2
2018-02-19T20:15:25.736Z,68.3
2018-02-19T20:26:06.577Z,68.0
2018-02-19T20:36:37.936Z,68.1
2018-02-19T20:49:21.275Z,68.2
2018-02-19T20:59:35.170Z,68.0
2018-02-19T21:09:46.815Z,68.0
2018-02-19T21:20:02.408Z,67.9
2018-02-19T21:30:16.199Z,67.9
2018-02-19T21:40:30.042Z,67.7
2018-02-19T21:51:14.932Z,67.6
2018-02-19T22:01:59.572Z,67.4
2018-02-19T22:12:13.279Z,67.6
2018-02-19T22:22:28.523Z,68.2
2018-02-19T22:32:45.187Z,67.4
2018-02-19T22:43:00.528Z,67.3
2018-02-19T22:53:13.875Z,67.4
2018-02-19T23:03:58.539Z,67.3
2018-02-19T23:14:10.411Z,67.3
2018-02-19T23:24:55.868Z,67.4
2018-02-19T23:35:10.318Z,67.0
2018-02-19T23:45:57.041Z,67.3
2018-02-19T23:56:43.031Z,67.3
